Time;durP1;ratioP1;P1;durP2;ratioP2;P2;SDS_P1;SDS_P2;PMS_P1;PMS_P2;Temp;Humidity;BMP_temperature;BMP_pressure;BME280_temperature;BME280_humidity;BME280_pressure;Samples;Min_cycle;Max_cycle;Signal;HPM_P1;HPM_P2
2022/08/29 00:00:11;;;;;;;12.57;10.20;;;;;;;21.48;100.00;99969.05;1702010;83;21066;-57
2022/08/29 00:02:38;;;;;;;15.70;10.25;;;;;;;21.42;100.00;99971.41;1704053;83;21452;-58
2022/08/29 00:05:06;;;;;;;16.97;10.67;;;;;;;21.48;100.00;99978.33;1705489;83;21049;-65
2022/08/29 00:07:35;;;;;;;20.97;10.70;;;;;;;21.52;100.00;99968.78;1700815;83;21247;-57
2022/08/29 00:10:05;;;;;;;24.03;11.63;;;;;;;21.45;100.00;99961.61;1704884;83;21472;-57
2022/08/29 00:12:33;;;;;;;13.80;10.47;;;;;;;21.45;100.00;99965.59;1701852;83;21070;-61
2022/08/29 00:15:05;;;;;;;18.37;11.83;;;;;;;21.51;100.00;99979.11;1710373;83;21756;-57
2022/08/29 00:17:32;;;;;;;18.93;11.27;;;;;;;21.48;100.00;99973.53;1707104;82;20994;-57
2022/08/29 00:20:00;;;;;;;14.23;10.37;;;;;;;21.47;100.00;99971.41;1699761;83;21276;-57
2022/08/29 00:22:27;;;;;;;14.40;10.37;;;;;;;21.52;100.00;99966.14;1710552;83;21130;-59
2022/08/29 00:24:56;;;;;;;16.47;11.53;;;;;;;21.63;100.00;99974.91;1702457;83;21148;-57
2022/08/29 00:27:23;;;;;;;20.90;13.03;;;;;;;21.54;100.00;99975.14;1704513;83;21143;-59
2022/08/29 00:29:50;;;;;;;18.47;12.00;;;;;;;21.58;100.00;99966.93;1702123;83;21446;-58
2022/08/29 00:32:18;;;;;;;19.67;11.77;;;;;;;21.58;100.00;99972.23;1699209;83;21244;-58
2022/08/29 00:34:45;;;;;;;19.40;12.93;;;;;;;21.54;100.00;99974.61;1698245;83;21094;-65
2022/08/29 00:37:12;;;;;;;19.53;12.47;;;;;;;21.45;100.00;99968.23;1700931;83;21042;-62
2022/08/29 00:39:39;;;;;;;19.17;13.33;;;;;;;21.44;100.00;99968.48;1704485;83;21009;-58
2022/08/29 00:42:07;;;;;;;19.17;13.63;;;;;;;21.44;100.00;99979.91;1707168;83;21140;-58
2022/08/29 00:44:34;;;;;;;16.80;13.00;;;;;;;21.46;100.00;99984.41;1708878;83;21150;-58
2022/08/29 00:47:06;;;;;;;19.90;13.80;;;;;;;21.49;100.00;99973.81;1683040;83;21133;-65
2022/08/29 00:49:42;;;;;;;19.07;13.70;;;;;;;21.45;100.00;99976.19;1696107;83;21144;-59
2022/08/29 00:52:34;;;;;;;18.53;12.63;;;;;;;21.41;100.00;99980.43;1697868;83;21031;-59
2022/08/29 00:55:03;;;;;;;18.13;12.10;;;;;;;21.49;100.00;99979.13;1703665;83;21336;-59
2022/08/29 00:57:30;;;;;;;19.77;13.47;;;;;;;21.50;100.00;99984.16;1718714;83;21141;-58
2022/08/29 00:59:59;;;;;;;16.27;12.07;;;;;;;21.44;100.00;99979.09;1711806;83;21119;-58
2022/08/29 01:02:27;;;;;;;16.13;11.57;;;;;;;21.49;100.00;99978.59;1716989;83;20977;-59
2022/08/29 01:04:55;;;;;;;18.40;11.40;;;;;;;21.41;100.00;99987.59;1708447;83;21024;-65
2022/08/29 01:07:24;;;;;;;14.90;11.33;;;;;;;21.42;100.00;99982.02;1702551;83;21002;-60
2022/08/29 01:09:51;;;;;;;13.73;10.20;;;;;;;21.43;100.00;99984.13;1699372;83;21232;-59
2022/08/29 01:12:19;;;;;;;31.63;10.60;;;;;;;21.34;100.00;99989.16;1699035;83;20951;-65
2022/08/29 01:14:54;;;;;;;13.60;9.87;;;;;;;21.28;100.00;99984.84;1712514;83;21045;-62
2022/08/29 01:17:26;;;;;;;13.43;10.00;;;;;;;21.37;100.00;99975.38;1718968;83;21049;-58
2022/08/29 01:20:21;;;;;;;13.80;9.30;;;;;;;21.24;100.00;99973.97;1709618;83;21571;-58
2022/08/29 01:23:20;;;;;;;15.10;9.23;;;;;;;21.16;100.00;99978.45;1708511;83;21177;-59
2022/08/29 01:25:49;;;;;;;12.97;9.43;;;;;;;21.12;100.00;99962.27;1707634;83;21504;-59
2022/08/29 01:28:24;;;;;;;14.53;9.50;;;;;;;21.16;100.00;99967.05;1712125;83;21081;-58
2022/08/29 01:31:06;;;;;;;12.90;8.57;;;;;;;20.71;100.00;99967.11;1702395;83;20987;-58
2022/08/29 01:33:50;;;;;;;13.80;8.27;;;;;;;21.08;100.00;99963.05;1705637;83;21001;-58
2022/08/29 01:36:23;;;;;;;13.13;9.13;;;;;;;21.14;100.00;99964.14;1707866;83;21607;-58
2022/08/29 01:38:51;;;;;;;13.47;8.40;;;;;;;21.19;100.00;99963.89;1688415;83;20942;-65
2022/08/29 01:41:20;;;;;;;12.67;8.87;;;;;;;21.28;100.00;99960.45;1700848;83;22158;-58
2022/08/29 01:43:50;;;;;;;12.97;8.43;;;;;;;21.30;100.00;99964.19;1714181;83;22525;-58
2022/08/29 01:46:24;;;;;;;10.80;7.97;;;;;;;21.37;100.00;99967.43;1705397;83;21117;-58
2022/08/29 01:48:52;;;;;;;15.63;8.87;;;;;;;21.40;100.00;99965.55;1704707;83;22287;-60
2022/08/29 01:51:19;;;;;;;9.83;6.97;;;;;;;21.40;100.00;99974.84;1700218;83;21002;-58
2022/08/29 01:53:46;;;;;;;10.77;8.60;;;;;;;21.38;100.00;99976.97;1706877;83;20935;-57
2022/08/29 01:56:26;;;;;;;12.17;8.57;;;;;;;21.27;100.00;99974.78;1700934;83;21085;-58
2022/08/29 01:58:53;;;;;;;14.47;8.53;;;;;;;21.26;100.00;99975.84;1706647;83;21082;-60
2022/08/29 02:01:25;;;;;;;13.07;9.07;;;;;;;21.26;100.00;99974.52;1708672;83;22630;-58
2022/08/29 02:03:53;;;;;;;12.57;8.70;;;;;;;21.20;100.00;99976.88;1705632;83;20995;-58
2022/08/29 02:06:20;;;;;;;14.53;8.93;;;;;;;21.19;100.00;99967.87;1699662;83;20939;-57
2022/08/29 02:08:48;;;;;;;10.60;8.60;;;;;;;21.13;100.00;99970.48;1698314;83;21160;-59
2022/08/29 02:11:16;;;;;;;14.70;9.17;;;;;;;21.17;100.00;99968.64;1700263;83;21586;-58
2022/08/29 02:13:58;;;;;;;11.83;8.93;;;;;;;21.17;100.00;99971.29;1714109;83;21158;-58
2022/08/29 02:16:24;;;;;;;14.60;9.73;;;;;;;21.13;100.00;99969.16;1707970;83;21021;-59
2022/08/29 02:18:52;;;;;;;14.03;8.70;;;;;;;21.19;100.00;99973.96;1709957;83;21512;-57
2022/08/29 02:21:21;;;;;;;13.17;9.47;;;;;;;21.26;100.00;99976.38;1704961;83;21459;-58
2022/08/29 02:23:49;;;;;;;10.63;8.30;;;;;;;21.27;100.00;99977.96;1700755;83;20987;-59
2022/08/29 02:26:17;;;;;;;10.93;7.93;;;;;;;21.25;100.00;99979.56;1701400;83;21248;-61
2022/08/29 02:28:44;;;;;;;12.37;8.57;;;;;;;21.19;100.00;99985.89;1700467;83;21022;-59
2022/08/29 02:31:12;;;;;;;11.63;8.13;;;;;;;21.16;100.00;99981.09;1710400;83;21465;-59
2022/08/29 02:33:39;;;;;;;13.57;8.50;;;;;;;21.12;100.00;99987.45;1699511;83;21015;-59
2022/08/29 02:36:06;;;;;;;12.83;8.90;;;;;;;21.13;100.00;99986.91;1706624;83;21531;-59
2022/08/29 02:38:35;;;;;;;12.67;8.77;;;;;;;21.17;100.00;99987.20;1707916;83;21260;-58
2022/08/29 02:41:02;;;;;;;12.53;8.03;;;;;;;21.24;100.00;99987.75;1697712;83;21569;-62
2022/08/29 02:43:30;;;;;;;12.07;8.30;;;;;;;21.12;100.00;99990.09;1709234;83;21580;-58
2022/08/29 02:45:58;;;;;;;14.00;8.77;;;;;;;20.98;100.00;99995.59;1716775;83;21057;-58
2022/08/29 02:48:25;;;;;;;13.00;8.87;;;;;;;20.94;100.00;99995.84;1711688;83;21516;-65
2022/08/29 02:50:54;;;;;;;12.87;8.93;;;;;;;21.00;100.00;100005.42;1700933;83;21673;-60
2022/08/29 02:53:24;;;;;;;11.23;8.50;;;;;;;21.00;100.00;100004.09;1699891;83;21117;-58
2022/08/29 02:55:51;;;;;;;11.97;8.80;;;;;;;21.12;100.00;100002.02;1701718;82;21050;-58
2022/08/29 02:58:20;;;;;;;15.80;9.17;;;;;;;21.17;100.00;100003.09;1708609;83;20982;-58
2022/08/29 03:00:47;;;;;;;12.53;10.07;;;;;;;21.06;100.00;99997.78;1709991;83;21319;-59
2022/08/29 03:03:14;;;;;;;13.67;10.00;;;;;;;21.12;100.00;99998.05;1708134;83;21254;-66
2022/08/29 03:05:41;;;;;;;15.30;10.63;;;;;;;21.10;100.00;99996.20;1700342;83;21410;-58
2022/08/29 03:08:12;;;;;;;15.90;10.20;;;;;;;21.12;100.00;100001.23;1704558;83;21018;-59
2022/08/29 03:10:40;;;;;;;12.80;9.90;;;;;;;21.11;100.00;100004.41;1705708;83;21066;-58
2022/08/29 03:13:09;;;;;;;12.20;9.40;;;;;;;21.10;100.00;100012.10;1701976;83;20982;-59
2022/08/29 03:15:36;;;;;;;11.93;9.23;;;;;;;21.21;100.00;100012.92;1699271;83;21043;-58
2022/08/29 03:18:04;;;;;;;13.60;9.77;;;;;;;21.23;100.00;100014.80;1699982;83;20994;-58
2022/08/29 03:20:34;;;;;;;13.37;8.70;;;;;;;21.22;100.00;100019.05;1704005;83;21088;-58
2022/08/29 03:23:01;;;;;;;13.07;9.37;;;;;;;21.20;100.00;100017.96;1709657;83;21026;-59
2022/08/29 03:25:28;;;;;;;13.57;10.40;;;;;;;21.23;100.00;100016.13;1712853;83;21531;-62
2022/08/29 03:27:55;;;;;;;13.17;8.53;;;;;;;21.32;100.00;100025.69;1713391;82;21123;-57
2022/08/29 03:30:22;;;;;;;11.70;9.30;;;;;;;21.38;100.00;100028.67;1704617;83;21006;-57
2022/08/29 03:32:49;;;;;;;17.97;13.90;;;;;;;21.66;100.00;100022.64;1700040;83;21567;-62
2022/08/29 03:35:18;;;;;;;16.83;11.00;;;;;;;22.17;100.00;100024.88;1704246;83;21027;-59
2022/08/29 03:37:45;;;;;;;18.37;11.37;;;;;;;22.50;100.00;100028.86;1702553;83;21555;-60
2022/08/29 03:40:12;;;;;;;16.07;12.97;;;;;;;22.83;100.00;100033.30;1698859;83;21205;-58
2022/08/29 03:42:39;;;;;;;17.83;12.90;;;;;;;23.13;100.00;100028.45;1699710;83;21162;-57
2022/08/29 03:45:09;;;;;;;21.87;12.80;;;;;;;23.63;100.00;100031.16;1701885;83;21112;-58
2022/08/29 03:47:36;;;;;;;23.03;15.10;;;;;;;23.99;100.00;100031.22;1698046;83;21221;-58
2022/08/29 03:50:04;;;;;;;22.17;16.83;;;;;;;24.23;100.00;100033.16;1698833;83;21132;-59
2022/08/29 03:52:31;;;;;;;23.33;17.87;;;;;;;24.63;100.00;100032.59;1716629;83;21290;-58
2022/08/29 03:54:59;;;;;;;22.97;17.90;;;;;;;24.88;100.00;100032.84;1701819;83;21065;-60
2022/08/29 03:57:27;;;;;;;17.87;15.20;;;;;;;25.34;100.00;100028.33;1706938;83;21464;-58
2022/08/29 03:59:55;;;;;;;19.50;17.00;;;;;;;25.69;100.00;100030.53;1708876;83;21355;-58
2022/08/29 04:02:22;;;;;;;20.00;17.23;;;;;;;26.05;100.00;100019.33;1707132;83;21121;-58
2022/08/29 04:05:05;;;;;;;23.43;16.83;;;;;;;26.33;100.00;100012.20;1710493;83;22119;-58
2022/08/29 04:07:48;;;;;;;22.05;16.85;;;;;;;26.68;100.00;100010.00;1699218;83;21529;-58
2022/08/29 04:10:24;;;;;;;23.40;16.75;;;;;;;27.12;100.00;100014.78;1703440;83;21014;-58
2022/08/29 04:12:51;;;;;;;20.72;16.50;;;;;;;27.49;100.00;100012.91;1699516;83;21066;-66
2022/08/29 04:15:19;;;;;;;18.48;13.62;;;;;;;28.00;100.00;100012.33;1702518;83;21579;-58
2022/08/29 04:17:46;;;;;;;18.67;14.45;;;;;;;28.35;100.00;100020.80;1700195;83;21563;-59
2022/08/29 04:20:14;;;;;;;16.73;12.90;;;;;;;28.30;100.00;100012.91;1704256;82;21500;-58
2022/08/29 04:22:41;;;;;;;16.37;13.75;;;;;;;27.98;100.00;100011.27;1703652;83;20911;-65
2022/08/29 04:25:10;;;;;;;17.82;14.25;;;;;;;27.74;100.00;100010.77;1706829;83;21034;-58
2022/08/29 04:27:38;;;;;;;18.15;14.83;;;;;;;27.48;100.00;100018.03;1702683;83;21607;-58
2022/08/29 04:30:09;;;;;;;21.42;16.00;;;;;;;27.22;100.00;100018.33;1700543;83;21260;-60
2022/08/29 04:32:36;;;;;;;18.77;15.77;;;;;;;26.85;100.00;100020.88;1684349;83;21172;-66
2022/08/29 04:35:03;;;;;;;19.27;15.83;;;;;;;26.57;100.00;100032.66;1707636;83;21219;-58
2022/08/29 04:37:31;;;;;;;17.60;14.80;;;;;;;26.36;100.00;100031.62;1709806;83;21474;-58
2022/08/29 04:39:58;;;;;;;16.02;13.90;;;;;;;26.15;100.00;100031.73;1702378;83;21003;-59
2022/08/29 04:42:26;;;;;;;18.10;14.55;;;;;;;25.85;100.00;100040.47;1706545;83;21147;-58
2022/08/29 04:44:53;;;;;;;22.27;14.73;;;;;;;25.69;100.00;100041.75;1703637;83;21050;-63
2022/08/29 04:47:21;;;;;;;20.43;13.95;;;;;;;26.00;100.00;100046.12;1700058;83;21073;-58
2022/08/29 04:49:53;;;;;;;20.08;14.55;;;;;;;26.74;100.00;100038.20;1704947;83;20987;-59
2022/08/29 04:52:22;;;;;;;17.62;14.70;;;;;;;27.68;100.00;100032.84;1701766;83;21074;-59
2022/08/29 04:54:49;;;;;;;20.00;16.45;;;;;;;28.50;100.00;100037.63;1701747;83;21170;-65
2022/08/29 04:57:16;;;;;;;14.50;13.00;;;;;;;29.02;100.00;100033.30;1702954;83;21707;-59
2022/08/29 04:59:46;;;;;;;17.75;13.75;;;;;;;29.25;100.00;100029.95;1716343;83;21010;-58
2022/08/29 05:02:13;;;;;;;13.72;12.33;;;;;;;29.03;100.00;100035.42;1701732;83;20986;-59
2022/08/29 05:04:40;;;;;;;16.02;13.70;;;;;;;28.42;100.00;100029.79;1708848;83;21037;-67
2022/08/29 05:07:07;;;;;;;16.27;14.47;;;;;;;28.42;100.00;100029.79;1701060;83;21256;-59
2022/08/29 05:09:36;;;;;;;16.45;14.13;;;;;;;28.13;100.00;100038.25;1700855;83;21001;-59
2022/08/29 05:12:05;;;;;;;16.87;14.65;;;;;;;27.96;100.00;100042.14;1703167;83;21205;-59
2022/08/29 05:14:33;;;;;;;15.38;13.55;;;;;;;27.75;100.00;100039.94;1713458;83;21064;-60
2022/08/29 05:17:00;;;;;;;16.75;14.73;;;;;;;27.61;100.00;100049.86;1705806;83;21357;-67
2022/08/29 05:19:27;;;;;;;18.77;14.90;;;;;;;27.08;100.00;100058.44;1707461;83;21745;-59
2022/08/29 05:21:56;;;;;;;21.57;16.30;;;;;;;27.09;100.00;100057.36;1705755;83;21038;-60
2022/08/29 05:24:23;;;;;;;16.02;14.25;;;;;;;27.15;100.00;100064.21;1702174;83;21546;-59
2022/08/29 05:26:51;;;;;;;16.45;14.70;;;;;;;27.22;100.00;100063.27;1700343;83;21011;-67
2022/08/29 05:29:19;;;;;;;14.78;13.28;;;;;;;27.15;100.00;100068.23;1698513;82;21069;-66
2022/08/29 05:31:48;;;;;;;16.57;14.13;;;;;;;27.19;100.00;100067.87;1701179;83;21327;-59
2022/08/29 05:34:16;;;;;;;17.70;14.68;;;;;;;27.26;100.00;100060.23;1704925;83;21156;-59
2022/08/29 05:36:44;;;;;;;18.32;15.93;;;;;;;27.22;100.00;100071.30;1693191;83;21168;-60
2022/08/29 05:39:11;;;;;;;20.15;16.02;;;;;;;27.00;100.00;100072.51;1697167;83;21046;-61
2022/08/29 05:41:38;;;;;;;20.05;16.70;;;;;;;27.13;100.00;100071.77;1696139;83;21957;-59
2022/08/29 05:44:06;;;;;;;22.48;17.65;;;;;;;27.29;100.00;100083.73;1705147;83;21857;-59
2022/08/29 05:46:33;;;;;;;17.77;15.48;;;;;;;27.38;100.00;100080.59;1706825;83;21504;-58
2022/08/29 05:49:00;;;;;;;17.60;15.65;;;;;;;27.50;100.00;100083.30;1712969;83;21063;-60
2022/08/29 05:51:27;;;;;;;19.92;17.67;;;;;;;27.62;100.00;100085.73;1701264;83;20982;-60
2022/08/29 05:53:54;;;;;;;19.07;16.73;;;;;;;27.85;100.00;100086.59;1703875;83;21009;-58
2022/08/29 05:56:25;;;;;;;17.50;15.75;;;;;;;28.11;100.00;100087.36;1704710;83;21203;-59
2022/08/29 05:58:53;;;;;;;16.42;14.65;;;;;;;28.58;100.00;100079.79;1700067;83;21627;-59
2022/08/29 06:01:27;;;;;;;16.05;14.33;;;;;;;28.82;100.00;100086.91;1704745;83;21702;-65
2022/08/29 06:03:55;;;;;;;18.02;15.10;;;;;;;29.50;100.00;100090.71;1702359;83;21098;-58
2022/08/29 06:06:24;;;;;;;17.50;15.25;;;;;;;29.93;100.00;100089.97;1705272;83;21117;-58
2022/08/29 06:08:52;;;;;;;15.60;13.98;;;;;;;30.32;100.00;100088.25;1706035;83;21877;-60
2022/08/29 06:11:22;;;;;;;18.57;14.25;;;;;;;30.65;100.00;100083.89;1703170;83;21070;-66
2022/08/29 06:13:50;;;;;;;13.43;11.40;;;;;;;31.01;100.00;100079.41;1702349;83;21511;-59
2022/08/29 06:16:19;;;;;;;12.47;11.10;;;;;;;31.20;100.00;100074.95;1701180;83;21022;-59
2022/08/29 06:18:46;;;;;;;14.85;10.00;;;;;;;31.60;100.00;100068.41;1712074;83;21045;-58
2022/08/29 06:21:14;;;;;;;9.98;8.58;;;;;;;32.44;100.00;100069.11;1701219;83;21194;-67
2022/08/29 06:23:42;;;;;;;13.72;9.38;;;;;;;32.97;100.00;100061.98;1699532;83;21069;-59
2022/08/29 06:26:09;;;;;;;9.48;8.10;;;;;;;33.23;100.00;100066.24;1700976;83;21144;-59
2022/08/29 06:28:38;;;;;;;9.85;8.33;;;;;;;34.00;100.00;100064.25;1714601;83;21152;-60
2022/08/29 06:31:15;;;;;;;14.23;9.30;;;;;;;34.57;100.00;100067.09;1701107;83;21356;-58
2022/08/29 06:33:43;;;;;;;10.13;7.92;;;;;;;35.23;93.29;100057.98;1704096;83;21833;-58
2022/08/29 06:36:10;;;;;;;9.95;8.40;;;;;;;35.51;88.63;100056.49;1701465;83;20947;-59
2022/08/29 06:38:38;;;;;;;9.88;8.08;;;;;;;35.86;81.46;100059.70;1700065;83;21153;-58
2022/08/29 06:41:08;;;;;;;10.95;9.13;;;;;;;36.20;77.99;100064.23;1699793;83;21129;-62
2022/08/29 06:43:35;;;;;;;9.68;7.75;;;;;;;36.44;72.12;100069.09;1700976;83;21579;-58
2022/08/29 06:46:02;;;;;;;8.48;7.58;;;;;;;36.76;73.24;100078.58;1706566;82;21131;-59
2022/08/29 06:48:29;;;;;;;11.20;7.45;;;;;;;37.18;65.57;100079.03;1703308;83;21070;-58
2022/08/29 06:50:57;;;;;;;9.68;8.65;;;;;;;37.57;63.34;100078.77;1715441;83;20985;-58
2022/08/29 06:53:25;;;;;;;7.95;7.15;;;;;;;37.96;61.47;100083.90;1710190;83;21021;-62
2022/08/29 06:55:53;;;;;;;9.55;7.17;;;;;;;38.41;57.18;100082.81;1713834;83;22087;-58
2022/08/29 06:58:20;;;;;;;8.48;6.60;;;;;;;38.62;54.66;100089.61;1714233;83;21110;-58
2022/08/29 07:00:48;;;;;;;9.93;8.08;;;;;;;38.72;51.74;100086.20;1706446;83;21065;-58
2022/08/29 07:03:16;;;;;;;8.33;7.40;;;;;;;38.86;52.96;100096.42;1706939;82;21101;-60
2022/08/29 07:05:45;;;;;;;10.93;7.83;;;;;;;39.08;51.76;100091.31;1699353;83;21054;-59
2022/08/29 07:08:12;;;;;;;8.85;7.25;;;;;;;39.30;51.45;100096.34;1707490;83;21022;-58
2022/08/29 07:10:43;;;;;;;9.60;6.42;;;;;;;39.61;48.83;100096.87;1708444;83;21224;-58
2022/08/29 07:13:11;;;;;;;12.80;7.25;;;;;;;39.78;48.35;100100.84;1701778;83;20947;-67
2022/08/29 07:15:38;;;;;;;8.83;7.03;;;;;;;39.99;46.17;100098.18;1699387;83;22494;-58
2022/08/29 07:18:05;;;;;;;10.10;6.33;;;;;;;40.15;45.32;100102.53;1704197;83;21061;-56
2022/08/29 07:20:32;;;;;;;9.55;5.97;;;;;;;40.22;44.20;100095.13;1703254;83;21077;-56
2022/08/29 07:23:02;;;;;;;9.10;6.35;;;;;;;40.35;43.59;100099.05;1707737;83;21065;-57
2022/08/29 07:25:30;;;;;;;7.05;5.83;;;;;;;40.42;41.80;100103.72;1714921;82;21113;-56
2022/08/29 07:27:57;;;;;;;7.70;6.35;;;;;;;40.45;42.63;100106.27;1701062;83;21486;-58
2022/08/29 07:30:24;;;;;;;7.67;6.40;;;;;;;40.62;41.97;100107.48;1713367;83;21042;-56
2022/08/29 07:32:51;;;;;;;7.83;5.75;;;;;;;40.74;41.16;100114.69;1706815;83;21027;-56
2022/08/29 07:35:18;;;;;;;8.25;5.92;;;;;;;40.80;40.62;100118.59;1706972;83;21288;-59
2022/08/29 07:37:46;;;;;;;8.03;5.60;;;;;;;40.81;39.56;100117.42;1704313;83;21045;-56
2022/08/29 07:40:16;;;;;;;8.20;5.17;;;;;;;40.80;39.37;100118.59;1705595;82;21995;-56
2022/08/29 07:42:43;;;;;;;10.28;5.60;;;;;;;40.96;38.13;100116.04;1711703;83;21066;-56
2022/08/29 07:45:12;;;;;;;6.87;5.20;;;;;;;41.00;38.06;100120.94;1715464;82;21002;-62
2022/08/29 07:47:40;;;;;;;6.42;5.12;;;;;;;41.01;37.17;100121.13;1715607;83;21468;-62
2022/08/29 07:50:09;;;;;;;8.13;5.25;;;;;;;41.17;37.79;100124.20;1710296;83;20979;-57
2022/08/29 07:52:36;;;;;;;7.03;5.08;;;;;;;41.30;36.74;100128.69;1705421;83;21022;-55
2022/08/29 07:55:04;;;;;;;7.33;5.05;;;;;;;41.30;36.75;100136.30;1699353;83;20998;-59
2022/08/29 07:57:32;;;;;;;6.20;4.70;;;;;;;41.31;35.43;100132.38;1704125;83;21054;-55
2022/08/29 08:00:00;;;;;;;6.12;4.45;;;;;;;41.12;35.89;100134.78;1700411;83;22224;-56
2022/08/29 08:02:28;;;;;;;7.12;4.55;;;;;;;41.07;35.25;100138.11;1700368;83;21116;-56
2022/08/29 08:04:55;;;;;;;7.35;4.85;;;;;;;41.16;34.80;100142.39;1704941;83;21102;-59
2022/08/29 08:07:22;;;;;;;10.55;4.83;;;;;;;41.21;34.21;100134.55;1707118;83;21052;-62
2022/08/29 08:09:51;;;;;;;6.25;4.42;;;;;;;41.39;34.72;100129.63;1705112;83;21544;-63
2022/08/29 08:12:17;;;;;;;7.37;4.87;;;;;;;41.59;33.63;100129.38;1700441;83;22410;-56
2022/08/29 08:14:45;;;;;;;7.45;4.40;;;;;;;41.50;34.06;100137.24;1703557;83;21444;-55
2022/08/29 08:17:11;;;;;;;7.40;4.67;;;;;;;41.56;34.21;100139.17;1704140;83;21014;-56
2022/08/29 08:19:38;;;;;;;5.87;3.70;;;;;;;41.50;33.10;100138.02;1708339;83;21003;-63
2022/08/29 08:22:06;;;;;;;7.97;4.78;;;;;;;41.37;34.00;100143.71;1702902;82;21180;-55
2022/08/29 08:24:33;;;;;;;5.00;4.10;;;;;;;41.50;33.77;100131.77;1701969;83;21214;-55
2022/08/29 08:27:01;;;;;;;9.10;5.92;;;;;;;41.55;34.19;100132.13;1702589;83;21702;-55
2022/08/29 08:29:28;;;;;;;6.33;4.75;;;;;;;41.59;33.26;100123.91;1702594;83;21077;-55
2022/08/29 08:31:58;;;;;;;7.42;4.87;;;;;;;41.40;33.97;100129.22;1707443;83;21066;-56
2022/08/29 08:34:24;;;;;;;7.50;4.53;;;;;;;41.48;34.57;100128.63;1703022;83;21526;-54
2022/08/29 08:36:51;;;;;;;7.90;4.33;;;;;;;41.60;34.23;100118.64;1707140;83;21232;-55
2022/08/29 08:39:19;;;;;;;5.53;3.98;;;;;;;41.63;34.69;100126.03;1706899;83;21081;-55
2022/08/29 08:42:04;;;;;;;6.78;4.47;;;;;;;41.81;34.57;100124.59;1707864;83;21061;-62
2022/08/29 08:45:14;;;;;;;7.42;4.33;;;;;;;41.95;34.35;100123.17;1703830;83;21469;-54
2022/08/29 08:47:59;;;;;;;6.00;4.40;;;;;;;42.09;33.90;100125.06;1703816;83;21010;-55
2022/08/29 08:51:01;;;;;;;7.62;4.78;;;;;;;41.83;34.20;100118.77;1705346;83;21170;-63
2022/08/29 08:53:44;;;;;;;7.30;4.80;;;;;;;41.68;34.75;100113.91;1703740;83;21411;-56
2022/08/29 08:56:17;;;;;;;6.67;4.42;;;;;;;41.72;34.76;100119.55;1706175;83;21540;-58
2022/08/29 08:58:57;;;;;;;9.35;4.20;;;;;;;41.70;33.93;100110.95;1703978;83;21128;-63
2022/08/29 09:01:28;;;;;;;11.22;4.30;;;;;;;41.60;34.56;100104.95;1708014;83;21002;-56
2022/08/29 09:04:30;;;;;;;6.67;3.90;;;;;;;41.74;33.24;100106.83;1704401;83;21338;-57
2022/08/29 09:07:40;;;;;;;6.28;3.50;;;;;;;41.75;33.22;100107.01;1704685;83;21090;-57
2022/08/29 09:10:42;;;;;;;11.30;4.22;;;;;;;41.69;33.78;100105.89;1702908;83;22093;-55
2022/08/29 09:13:26;;;;;;;7.15;4.40;;;;;;;41.78;33.31;100092.53;1692616;83;21046;-64
2022/08/29 09:15:57;;;;;;;7.05;3.50;;;;;;;41.90;33.62;100094.86;1704696;83;20964;-58
2022/08/29 09:18:34;;;;;;;6.65;3.50;;;;;;;41.72;33.54;100096.29;1707951;83;21489;-55
2022/08/29 09:21:05;;;;;;;6.67;3.72;;;;;;;41.63;32.56;100090.45;1698648;82;21066;-56
2022/08/29 09:23:48;;;;;;;5.17;3.08;;;;;;;41.46;32.23;100089.97;1700341;83;22069;-62
2022/08/29 09:26:18;;;;;;;9.38;3.87;;;;;;;41.35;32.75;100094.67;1708161;83;20965;-57
2022/08/29 09:28:45;;;;;;;7.20;4.00;;;;;;;41.32;32.77;100095.64;1708844;83;21062;-65
2022/08/29 09:31:31;;;;;;;8.95;3.50;;;;;;;41.29;32.60;100099.16;1703269;83;21535;-60
2022/08/29 09:34:04;;;;;;;6.95;3.45;;;;;;;41.29;31.25;100092.32;1705593;83;21014;-56
2022/08/29 09:36:44;;;;;;;9.38;4.20;;;;;;;41.21;32.37;100096.27;1704803;82;21066;-55
2022/08/29 09:39:21;;;;;;;8.50;3.85;;;;;;;41.33;31.47;100086.84;1699486;83;21034;-57
2022/08/29 09:41:58;;;;;;;6.15;3.30;;;;;;;41.28;31.38;100091.36;1705495;83;21532;-56
2022/08/29 09:44:33;;;;;;;6.12;2.90;;;;;;;41.20;31.27;100093.34;1704988;83;22029;-55
2022/08/29 09:47:13;;;;;;;9.40;3.62;;;;;;;41.03;30.54;100093.59;1698782;83;21519;-56
2022/08/29 09:49:41;;;;;;;9.03;3.70;;;;;;;40.80;31.47;100095.92;1708727;83;21009;-62
2022/08/29 09:52:15;;;;;;;8.60;4.28;;;;;;;40.60;30.90;100094.97;1708458;83;21521;-55
2022/08/29 09:54:43;;;;;;;7.92;3.77;;;;;;;40.45;30.80;100093.38;1712625;82;21236;-56
2022/08/29 09:57:21;;;;;;;11.63;3.60;;;;;;;40.44;30.84;100091.05;1707322;83;22317;-55
2022/08/29 10:00:05;;;;;;;8.48;3.70;;;;;;;40.30;30.30;100087.13;1710553;83;20950;-56
2022/08/29 10:02:48;;;;;;;8.75;4.12;;;;;;;40.38;29.82;100089.28;1704829;83;21072;-56
2022/08/29 10:05:43;;;;;;;7.87;3.47;;;;;;;40.50;30.04;100084.01;1704643;83;21104;-56
2022/08/29 10:08:33;;;;;;;11.75;4.67;;;;;;;40.40;30.64;100079.34;1700873;83;21109;-56
2022/08/29 10:11:02;;;;;;;9.13;4.15;;;;;;;40.34;30.93;100083.03;1700911;83;23097;-60
2022/08/29 10:13:44;;;;;;;10.95;4.08;;;;;;;40.38;31.76;100085.19;1703434;83;21066;-57
2022/08/29 10:16:28;;;;;;;10.32;4.33;;;;;;;40.50;31.15;100084.01;1707077;83;21136;-58
2022/08/29 10:19:06;;;;;;;7.33;3.58;;;;;;;40.53;30.75;100084.60;1711097;83;21069;-57
2022/08/29 10:22:28;;;;;;;8.73;4.35;;;;;;;40.58;29.99;100081.52;1710326;83;21571;-62
2022/08/29 10:25:07;;;;;;;9.50;4.08;;;;;;;40.70;30.32;100083.85;1704328;83;21174;-57
2022/08/29 10:27:55;;;;;;;8.00;3.90;;;;;;;40.85;30.24;100070.95;1693224;82;21073;-65
2022/08/29 10:30:26;;;;;;;7.95;3.92;;;;;;;40.96;30.01;100072.30;1710160;83;21105;-60
2022/08/29 10:33:18;;;;;;;7.28;3.65;;;;;;;41.04;29.55;100073.86;1710790;83;21485;-56
2022/08/29 10:36:13;;;;;;;8.80;3.33;;;;;;;41.03;29.27;100076.38;1703793;83;21108;-64
2022/08/29 10:39:15;;;;;;;7.55;3.95;;;;;;;40.80;28.83;100076.23;1705473;83;21374;-56
2022/08/29 10:42:00;;;;;;;9.93;3.98;;;;;;;40.52;29.91;100081.09;1705263;83;37773;-56
2022/08/29 10:44:35;;;;;;;9.48;4.33;;;;;;;40.57;29.25;100078.58;1703428;83;20961;-56
2022/08/29 10:47:34;;;;;;;10.10;4.03;;;;;;;40.54;29.19;100084.23;1701210;82;21111;-57
2022/08/29 10:50:16;;;;;;;7.78;3.50;;;;;;;40.38;28.88;100082.45;1690346;83;21070;-57
2022/08/29 10:53:04;;;;;;;12.43;4.65;;;;;;;40.21;28.40;100078.55;1709702;83;21127;-56
2022/08/29 10:55:54;;;;;;;8.38;4.37;;;;;;;40.06;29.00;100085.13;1696680;83;22308;-58
2022/08/29 10:58:53;;;;;;;6.17;4.30;;;;;;;39.92;28.55;100083.14;1701239;83;21522;-56
2022/08/29 11:01:41;;;;;;;5.80;3.60;;;;;;;39.95;29.33;100086.47;1709287;83;21030;-64
2022/08/29 11:04:22;;;;;;;8.65;4.40;;;;;;;40.15;28.46;100088.28;1704355;83;21094;-65
2022/08/29 11:07:22;;;;;;;8.85;4.58;;;;;;;40.31;27.59;100087.34;1704794;83;21101;-64
2022/08/29 11:09:53;;;;;;;7.47;4.27;;;;;;;40.40;27.08;100085.59;1705015;83;20965;-56
2022/08/29 11:12:33;;;;;;;7.95;4.55;;;;;;;40.57;26.17;100079.94;1704048;83;20995;-59
2022/08/29 11:15:31;;;;;;;6.85;4.75;;;;;;;40.65;24.84;100081.52;1700132;83;21002;-56
2022/08/29 11:18:38;;;;;;;8.95;5.60;;;;;;;40.47;24.83;100079.35;1700657;83;21588;-56
2022/08/29 11:21:17;;;;;;;7.78;4.80;;;;;;;40.28;25.17;100075.05;1702393;83;21180;-57
2022/08/29 11:23:46;;;;;;;8.23;4.70;;;;;;;40.06;25.37;100081.04;1703546;83;21515;-57
2022/08/29 11:26:28;;;;;;;10.85;5.28;;;;;;;39.87;25.24;100087.04;1705283;83;21203;-64
2022/08/29 11:29:21;;;;;;;8.13;4.92;;;;;;;39.77;25.14;100084.27;1699769;83;21128;-56
2022/08/29 11:32:03;;;;;;;7.50;5.33;;;;;;;39.76;24.90;100083.50;1707978;83;21400;-64
2022/08/29 11:35:10;;;;;;;7.20;4.85;;;;;;;39.70;25.49;100087.76;1706001;83;21769;-55
2022/08/29 11:37:59;;;;;;;8.60;5.20;;;;;;;39.66;25.31;100089.08;1712069;83;21531;-56